Time;durP1;ratioP1;P1;durP2;ratioP2;P2;SDS_P1;SDS_P2;PMS_P1;PMS_P2;Temp;Humidity;BMP_temperature;BMP_pressure;BME280_temperature;BME280_humidity;BME280_pressure;Samples;Min_cycle;Max_cycle;Signal;HPM_P1;HPM_P2
2023/01/05 00:01:16;;;;;;;25.33;10.05;;;;;;;11.03;100.00;95283.69;5038912;28;20033;-88
2023/01/05 00:03:42;;;;;;;22.50;10.13;;;;;;;11.11;100.00;95278.03;5039074;28;20434;-88
2023/01/05 00:06:19;;;;;;;21.52;10.05;;;;;;;11.01;100.00;95291.03;5039847;28;20037;-88
2023/01/05 00:08:45;;;;;;;21.92;10.50;;;;;;;11.09;100.00;95282.72;5043292;28;20115;-87
2023/01/05 00:22:30;;;;;;;13.70;7.35;;;;;;;11.34;100.00;95268.28;4968181;28;20045;-88
2023/01/05 00:25:00;;;;;;;17.85;7.60;;;;;;;11.39;100.00;95270.13;5015922;28;20068;-88
2023/01/05 00:27:26;;;;;;;19.65;8.38;;;;;;;11.06;100.00;95272.75;5042367;28;20033;-88
2023/01/05 00:29:52;;;;;;;27.08;9.65;;;;;;;10.86;100.00;95266.22;5042308;28;20040;-88
2023/01/05 00:32:17;;;;;;;22.45;8.90;;;;;;;10.96;100.00;95262.91;5026111;28;20029;-88
2023/01/05 00:34:43;;;;;;;26.05;10.63;;;;;;;10.80;100.00;95267.22;5042329;28;20033;-88
2023/01/05 00:37:08;;;;;;;25.33;12.07;;;;;;;11.09;100.00;95272.25;5042318;28;20437;-88
2023/01/05 00:39:34;;;;;;;22.35;12.25;;;;;;;11.17;100.00;95266.53;5042263;28;20040;-88
2023/01/05 00:41:59;;;;;;;24.27;11.43;;;;;;;11.25;100.00;95264.50;5060047;28;20323;-88
2023/01/05 00:44:25;;;;;;;22.50;11.02;;;;;;;11.16;100.00;95267.56;5042129;28;20036;-88
2023/01/05 00:46:50;;;;;;;22.15;10.30;;;;;;;11.15;100.00;95266.00;5042162;28;20082;-88
2023/01/05 00:49:15;;;;;;;21.27;10.73;;;;;;;11.16;100.00;95264.19;5042093;28;20037;-88
2023/01/05 00:51:41;;;;;;;20.42;10.18;;;;;;;11.08;100.00;95254.94;5042182;28;20048;-88
2023/01/05 00:54:07;;;;;;;24.05;10.15;;;;;;;10.92;100.00;95258.44;5041963;28;20029;-88
2023/01/05 00:56:32;;;;;;;20.75;9.65;;;;;;;10.84;100.00;95260.44;5025870;28;20033;-88
2023/01/05 00:58:58;;;;;;;20.80;10.18;;;;;;;10.18;100.00;95258.59;5041956;28;20056;-87
2023/01/05 01:01:23;;;;;;;21.63;10.73;;;;;;;9.94;100.00;95258.81;5042172;28;20032;-88
2023/01/05 01:03:49;;;;;;;21.98;11.07;;;;;;;10.40;100.00;95255.22;5041904;28;20323;-88
2023/01/05 01:06:14;;;;;;;22.20;11.15;;;;;;;10.59;100.00;95250.50;5041667;28;20035;-88
2023/01/05 01:08:40;;;;;;;26.15;10.70;;;;;;;10.64;100.00;95245.28;5025456;28;20081;-88
2023/01/05 01:11:06;;;;;;;30.50;11.23;;;;;;;10.62;100.00;95243.97;4993915;28;20044;-88
2023/01/05 01:13:32;;;;;;;26.85;11.65;;;;;;;10.53;100.00;95240.97;5002252;28;20060;-88
2023/01/05 01:15:57;;;;;;;18.33;10.15;;;;;;;10.61;100.00;95237.94;5019365;28;20076;-88
2023/01/05 01:18:23;;;;;;;21.75;11.35;;;;;;;10.58;100.00;95238.44;5001006;28;20075;-88
2023/01/05 01:20:48;;;;;;;22.15;10.75;;;;;;;10.57;100.00;95240.25;5019472;28;20041;-88
2023/01/05 01:23:13;;;;;;;22.38;10.63;;;;;;;10.59;100.00;95227.69;5002078;28;20163;-88
2023/01/05 01:25:39;;;;;;;19.02;9.65;;;;;;;10.55;100.00;95223.19;5001722;28;20041;-88
2023/01/05 01:28:05;;;;;;;18.42;10.13;;;;;;;10.68;100.00;95225.41;5001959;28;20445;-88
2023/01/05 01:30:30;;;;;;;27.00;10.30;;;;;;;10.64;100.00;95223.56;4985651;28;20450;-88
2023/01/05 01:32:56;;;;;;;18.23;8.45;;;;;;;10.62;100.00;95215.16;4985561;28;20030;-88
2023/01/05 01:35:21;;;;;;;22.63;9.05;;;;;;;10.45;100.00;95213.38;5001814;28;20034;-88
2023/01/05 01:37:47;;;;;;;26.38;10.07;;;;;;;10.21;100.00;95226.72;5001881;28;20040;-89
2023/01/05 01:40:12;;;;;;;24.90;10.50;;;;;;;10.02;100.00;95208.66;5001797;28;20076;-89
2023/01/05 01:42:38;;;;;;;23.63;11.85;;;;;;;10.26;100.00;95203.19;5001844;28;20041;-88
2023/01/05 01:45:24;;;;;;;27.70;11.23;;;;;;;10.29;100.00;95212.41;4985421;28;20052;-88
2023/01/05 01:48:00;;;;;;;26.83;11.85;;;;;;;10.60;100.00;95208.31;5001197;28;20038;-87
2023/01/05 01:50:46;;;;;;;29.15;13.02;;;;;;;10.74;100.00;95206.09;4985662;28;20141;-88
2023/01/05 01:53:32;;;;;;;27.88;10.43;;;;;;;10.73;100.00;95199.28;4985561;28;20029;-88
2023/01/05 01:56:00;;;;;;;23.40;10.07;;;;;;;10.70;100.00;95196.34;4985325;28;20398;-88
2023/01/05 01:58:27;;;;;;;19.08;10.40;;;;;;;10.68;100.00;95191.34;4985041;28;20120;-88
2023/01/05 02:00:53;;;;;;;28.45;10.07;;;;;;;10.65;100.00;95189.22;5001430;28;20069;-88
2023/01/05 02:03:19;;;;;;;29.30;12.45;;;;;;;10.46;100.00;95183.53;5001161;28;20058;-87
2023/01/05 02:05:44;;;;;;;31.23;13.13;;;;;;;10.65;100.00;95178.75;5001074;28;20056;-88
2023/01/05 02:08:14;;;;;;;26.60;12.90;;;;;;;10.98;100.00;95179.59;5001137;28;20033;-87
2023/01/05 02:11:04;;;;;;;30.65;12.50;;;;;;;11.02;100.00;95172.00;4984820;28;20033;-87
2023/01/05 02:13:36;;;;;;;29.70;12.23;;;;;;;10.60;100.00;95170.84;5000892;28;20346;-87
2023/01/05 02:16:24;;;;;;;25.83;12.23;;;;;;;10.76;100.00;95161.31;5017945;28;20030;-87
2023/01/05 02:18:56;;;;;;;23.70;11.10;;;;;;;10.77;100.00;95151.59;5000637;28;20022;-87
2023/01/05 02:21:50;;;;;;;24.25;11.35;;;;;;;10.55;100.00;95158.47;5000923;28;20026;-87
2023/01/05 02:24:44;;;;;;;25.23;11.10;;;;;;;10.82;100.00;95147.19;5000723;28;20037;-87
2023/01/05 02:27:36;;;;;;;23.88;12.55;;;;;;;10.93;100.00;95147.28;5000608;28;20128;-87
2023/01/05 02:30:40;;;;;;;27.50;13.25;;;;;;;10.96;100.00;95141.53;4999993;28;20398;-87
2023/01/05 02:33:16;;;;;;;24.27;13.07;;;;;;;11.13;100.00;95130.91;5000707;28;20037;-88
2023/01/05 02:35:54;;;;;;;23.77;11.85;;;;;;;11.10;100.00;95132.22;4984634;28;20276;-88
2023/01/05 02:38:26;;;;;;;29.67;12.52;;;;;;;10.70;100.00;95128.22;5018157;28;20079;-88
2023/01/05 02:40:57;;;;;;;25.25;11.82;;;;;;;10.74;100.00;95124.03;5000781;28;20041;-88
2023/01/05 02:43:22;;;;;;;23.85;11.77;;;;;;;10.55;100.00;95127.03;5000676;28;20123;-88
2023/01/05 02:45:48;;;;;;;26.33;12.98;;;;;;;10.58;100.00;95117.88;5000530;28;20057;-88
2023/01/05 02:48:13;;;;;;;27.02;12.10;;;;;;;10.45;100.00;95113.81;5000629;28;20090;-88
2023/01/05 02:51:06;;;;;;;28.02;13.02;;;;;;;10.76;100.00;95114.13;5000698;28;20018;-88
2023/01/05 02:53:38;;;;;;;23.02;11.38;;;;;;;10.54;100.00;95104.50;4974664;28;20133;-88
2023/01/05 02:56:12;;;;;;;30.77;13.13;;;;;;;10.56;100.00;95102.41;5000668;28;20081;-88
2023/01/05 02:58:48;;;;;;;25.23;11.20;;;;;;;10.62;100.00;95105.09;4984465;28;20064;-88
2023/01/05 03:01:27;;;;;;;26.30;11.75;;;;;;;10.60;100.00;95102.72;4984237;28;20037;-87
2023/01/05 03:03:56;;;;;;;24.38;11.50;;;;;;;10.36;100.00;95089.88;4999956;28;20030;-88
2023/01/05 03:06:33;;;;;;;29.30;12.52;;;;;;;9.90;100.00;95084.97;4984149;28;20030;-88
2023/01/05 03:09:00;;;;;;;25.83;12.50;;;;;;;10.19;100.00;95088.16;5000343;28;20034;-88
2023/01/05 03:14:55;;;;;;;27.63;12.30;;;;;;;10.72;100.00;95087.63;5002908;28;20453;-88
2023/01/05 03:17:27;;;;;;;29.50;12.55;;;;;;;10.66;100.00;95082.59;5012465;28;20156;-88
2023/01/05 03:19:54;;;;;;;30.73;11.77;;;;;;;10.55;100.00;95074.63;4999747;28;20034;-88
2023/01/05 03:37:00;;;;;;;27.27;11.63;;;;;;;10.91;100.00;95060.22;5002577;28;20037;-88
2023/01/05 03:39:26;;;;;;;25.80;12.25;;;;;;;10.82;100.00;95065.13;4999685;28;20034;-88
2023/01/05 03:41:53;;;;;;;24.55;12.32;;;;;;;10.80;100.00;95068.00;5002229;28;20029;-88
2023/01/05 03:44:19;;;;;;;24.33;11.85;;;;;;;10.70;100.00;95067.94;4988349;28;20122;-88
2023/01/05 03:46:44;;;;;;;30.02;11.93;;;;;;;10.64;100.00;95069.72;5003912;28;20114;-88
2023/01/05 03:49:10;;;;;;;23.25;11.70;;;;;;;10.54;100.00;95067.81;5003927;28;20084;-88
2023/01/05 03:51:35;;;;;;;23.35;11.90;;;;;;;10.68;100.00;95067.41;5003996;28;20030;-88
2023/01/05 03:54:01;;;;;;;26.08;11.05;;;;;;;10.70;100.00;95057.44;5003969;28;20026;-88
2023/01/05 03:56:26;;;;;;;22.40;10.32;;;;;;;10.77;100.00;95060.66;5021115;28;20057;-88
2023/01/05 03:58:52;;;;;;;23.10;11.85;;;;;;;10.82;100.00;95052.81;5003819;28;20075;-87
2023/01/05 04:01:17;;;;;;;20.92;11.45;;;;;;;10.59;100.00;95056.59;5003483;28;20021;-87
2023/01/05 04:03:43;;;;;;;24.88;11.20;;;;;;;10.89;100.00;95055.22;5020970;28;20049;-88
2023/01/05 04:06:08;;;;;;;24.83;11.70;;;;;;;10.91;100.00;95057.63;4987424;28;20043;-88
2023/01/05 04:08:33;;;;;;;28.67;13.10;;;;;;;10.96;100.00;95062.88;5020990;28;20072;-88
2023/01/05 04:11:16;;;;;;;28.95;11.85;;;;;;;11.16;100.00;95059.59;5013965;28;20026;-88
2023/01/05 04:13:42;;;;;;;22.90;11.87;;;;;;;10.94;100.00;95054.47;5017785;28;20029;-88
2023/01/05 04:16:08;;;;;;;30.75;11.95;;;;;;;10.77;100.00;95044.94;4993300;28;20025;-88
2023/01/05 04:18:33;;;;;;;22.02;11.30;;;;;;;10.82;100.00;95047.59;5040569;28;20502;-88
2023/01/05 04:20:59;;;;;;;22.02;11.23;;;;;;;10.83;100.00;95046.53;5022885;28;20034;-88
2023/01/05 04:23:24;;;;;;;29.08;11.13;;;;;;;10.78;100.00;95049.13;5006824;28;20343;-88
2023/01/05 04:25:49;;;;;;;31.77;12.27;;;;;;;10.77;100.00;95050.19;5040941;28;20051;-88
2023/01/05 04:28:15;;;;;;;29.35;12.35;;;;;;;10.84;100.00;95045.50;5022969;28;20033;-89
2023/01/05 04:30:44;;;;;;;23.27;12.27;;;;;;;10.57;100.00;95051.59;5040283;28;20029;-89
2023/01/05 04:33:09;;;;;;;22.23;11.55;;;;;;;10.62;100.00;95042.19;5005055;28;20037;-89
2023/01/05 04:35:35;;;;;;;23.00;11.88;;;;;;;10.64;100.00;95050.59;5022627;28;20029;-88
2023/01/05 04:38:00;;;;;;;33.20;15.02;;;;;;;10.68;100.00;95047.19;5040240;28;20075;-88
2023/01/05 04:40:26;;;;;;;34.80;13.55;;;;;;;10.71;100.00;95046.72;5040219;28;20438;-88
2023/01/05 04:42:51;;;;;;;29.70;12.63;;;;;;;10.67;100.00;95048.25;5040335;28;20026;-88
2023/01/05 04:45:17;;;;;;;38.65;14.55;;;;;;;10.60;100.00;95053.69;5022540;28;20398;-88
2023/01/05 04:47:42;;;;;;;24.52;12.75;;;;;;;10.62;100.00;95047.44;5006310;28;20350;-88
2023/01/05 04:50:08;;;;;;;25.17;11.70;;;;;;;10.67;100.00;95044.84;5022546;28;20025;-88
2023/01/05 04:52:34;;;;;;;31.55;13.05;;;;;;;10.58;100.00;95037.44;5005878;28;20092;-88
2023/01/05 04:54:59;;;;;;;24.70;12.68;;;;;;;10.47;100.00;95041.00;5006157;28;20026;-88
2023/01/05 04:57:24;;;;;;;35.13;13.40;;;;;;;10.17;100.00;95047.53;5005916;28;20114;-88
2023/01/05 04:59:50;;;;;;;29.40;13.48;;;;;;;9.65;100.00;95040.97;5022316;28;20565;-88
2023/01/05 05:02:15;;;;;;;27.33;14.02;;;;;;;9.90;100.00;95043.09;5021987;28;20033;-89
2023/01/05 05:04:41;;;;;;;37.85;13.80;;;;;;;10.25;100.00;95044.47;5005981;28;20036;-88
2023/01/05 05:07:06;;;;;;;33.65;13.77;;;;;;;10.33;100.00;95046.66;5021692;28;20033;-88
2023/01/05 05:09:32;;;;;;;34.38;13.93;;;;;;;10.56;100.00;95036.91;5039573;28;20411;-88
2023/01/05 05:11:57;;;;;;;37.05;15.55;;;;;;;10.37;100.00;95044.31;5020915;28;20029;-88
2023/01/05 05:14:22;;;;;;;33.50;14.68;;;;;;;10.59;100.00;95033.78;5021937;28;20035;-88
2023/01/05 05:16:48;;;;;;;29.80;12.52;;;;;;;10.46;100.00;95040.22;5005692;28;20522;-88
2023/01/05 05:19:13;;;;;;;28.48;12.35;;;;;;;10.44;100.00;95041.50;5039415;28;20053;-89
2023/01/05 05:21:39;;;;;;;34.30;12.68;;;;;;;10.53;100.00;95045.28;5021801;28;20030;-88
2023/01/05 05:24:07;;;;;;;33.45;12.82;;;;;;;10.75;100.00;95029.44;5005735;28;20033;-88
2023/01/05 05:26:33;;;;;;;31.40;13.52;;;;;;;10.69;100.00;95032.28;5005577;28;20035;-88
2023/01/05 05:28:58;;;;;;;27.80;13.40;;;;;;;10.78;100.00;95043.09;5039280;28;20029;-89
2023/01/05 05:31:24;;;;;;;26.80;12.98;;;;;;;10.79;100.00;95042.03;5005797;28;20069;-88
2023/01/05 05:33:49;;;;;;;26.90;12.80;;;;;;;10.69;100.00;95042.75;5021676;28;20116;-88
2023/01/05 05:36:16;;;;;;;28.38;12.48;;;;;;;10.89;100.00;95029.78;5021403;28;20029;-88
2023/01/05 05:38:45;;;;;;;30.65;13.38;;;;;;;10.42;100.00;95033.91;5005487;28;20098;-88
2023/01/05 05:41:11;;;;;;;28.50;14.00;;;;;;;10.55;100.00;95032.69;5005429;28;20040;-88
2023/01/05 05:43:37;;;;;;;28.35;12.68;;;;;;;10.71;100.00;95035.44;5021332;28;20025;-88
2023/01/05 05:46:02;;;;;;;26.75;13.30;;;;;;;10.73;100.00;95028.09;5019355;28;20041;-89
2023/01/05 05:48:28;;;;;;;25.48;12.70;;;;;;;10.83;100.00;95038.66;5019032;28;20026;-88
2023/01/05 05:50:53;;;;;;;27.35;11.75;;;;;;;10.82;100.00;95034.47;5001676;28;20033;-88
2023/01/05 05:53:19;;;;;;;27.25;12.25;;;;;;;11.02;100.00;95038.25;5001701;28;20033;-88
2023/01/05 05:55:49;;;;;;;31.80;13.25;;;;;;;11.09;100.00;95041.47;4985299;28;20029;-88
2023/01/05 05:58:15;;;;;;;33.95;12.73;;;;;;;10.73;100.00;95036.78;4985353;28;20032;-88
2023/01/05 06:00:41;;;;;;;28.58;13.13;;;;;;;10.77;100.00;95038.88;4985346;28;20419;-88
2023/01/05 06:03:06;;;;;;;23.05;12.30;;;;;;;10.83;100.00;95043.91;5001292;28;20037;-88
2023/01/05 06:05:31;;;;;;;29.67;12.57;;;;;;;10.79;100.00;95037.59;5000755;28;20037;-88
2023/01/05 06:07:57;;;;;;;24.63;11.93;;;;;;;10.81;100.00;95027.66;5001154;28;20116;-88
2023/01/05 06:10:22;;;;;;;24.48;10.73;;;;;;;11.00;100.00;95033.28;5001300;28;20026;-88
2023/01/05 06:12:48;;;;;;;26.00;11.77;;;;;;;10.89;100.00;95037.66;5001268;28;20335;-88
2023/01/05 06:15:13;;;;;;;21.58;11.23;;;;;;;10.93;100.00;95027.47;5001132;28;20032;-88
2023/01/05 06:17:39;;;;;;;21.30;10.20;;;;;;;10.96;100.00;95028.78;5018425;28;20030;-88
2023/01/05 06:20:05;;;;;;;20.42;11.15;;;;;;;11.00;100.00;95028.03;4985026;28;20029;-88
2023/01/05 06:22:31;;;;;;;23.92;10.80;;;;;;;11.08;100.00;95029.41;4984641;28;20036;-88
2023/01/05 06:24:56;;;;;;;25.13;9.68;;;;;;;11.04;100.00;95025.69;5000958;28;20034;-88
2023/01/05 06:27:22;;;;;;;22.45;10.50;;;;;;;11.13;100.00;95018.94;4984682;28;20036;-88
2023/01/05 06:29:47;;;;;;;22.30;11.30;;;;;;;11.16;100.00;95022.88;5017884;28;20034;-88
2023/01/05 06:32:13;;;;;;;23.67;10.30;;;;;;;11.17;100.00;95020.00;4984818;28;20041;-88
2023/01/05 06:34:38;;;;;;;18.27;9.25;;;;;;;10.97;100.00;95022.50;5000938;28;20420;-88
2023/01/05 06:37:05;;;;;;;23.67;10.60;;;;;;;10.57;100.00;95014.91;5000595;28;20120;-87
2023/01/05 06:39:31;;;;;;;20.20;9.73;;;;;;;10.26;100.00;95019.09;4984492;28;20037;-87
2023/01/05 06:41:56;;;;;;;21.92;10.57;;;;;;;10.76;100.00;95017.16;5000124;28;20325;-87
2023/01/05 06:44:22;;;;;;;19.95;10.15;;;;;;;10.41;100.00;95010.59;5000836;28;20037;-87
2023/01/05 06:46:47;;;;;;;24.90;10.25;;;;;;;10.55;100.00;95010.97;5000472;28;20033;-87
2023/01/05 06:49:13;;;;;;;21.45;11.30;;;;;;;10.58;100.00;95010.47;5000403;28;20034;-87
2023/01/05 06:51:39;;;;;;;20.27;10.15;;;;;;;10.59;100.00;95012.03;5000506;28;20037;-87
2023/01/05 06:54:06;;;;;;;22.70;10.98;;;;;;;10.83;100.00;95006.41;5017729;28;20431;-87
2023/01/05 06:56:32;;;;;;;22.73;11.75;;;;;;;10.82;100.00;95003.03;5017585;28;20029;-86
2023/01/05 06:58:57;;;;;;;28.55;10.85;;;;;;;10.68;100.00;95015.75;4999815;28;20445;-86
2023/01/05 07:01:22;;;;;;;26.15;10.73;;;;;;;10.44;100.00;95010.06;5000137;28;20034;-87
2023/01/05 07:03:48;;;;;;;17.27;9.90;;;;;;;10.69;100.00;95019.19;4987604;28;20079;-86
2023/01/05 07:06:14;;;;;;;28.08;10.85;;;;;;;10.65;100.00;95011.03;5019197;28;20427;-86
2023/01/05 07:08:40;;;;;;;23.52;10.55;;;;;;;10.74;100.00;95011.34;5003202;28;20036;-87
2023/01/05 07:11:05;;;;;;;24.08;10.88;;;;;;;10.72;100.00;95013.44;5019727;28;20025;-87
2023/01/05 07:13:31;;;;;;;19.52;10.02;;;;;;;10.64;100.00;95013.91;5000544;28;20034;-87
2023/01/05 07:15:56;;;;;;;24.85;10.10;;;;;;;10.91;100.00;95003.34;4984054;28;20415;-86
2023/01/05 07:18:21;;;;;;;28.65;11.23;;;;;;;10.71;100.00;95006.59;4999510;28;20083;-86
2023/01/05 07:20:47;;;;;;;35.10;11.05;;;;;;;10.58;100.00;95007.84;4999450;28;20029;-86
2023/01/05 07:23:12;;;;;;;26.02;11.05;;;;;;;10.95;100.00;95011.50;4999415;28;20323;-86
2023/01/05 07:25:38;;;;;;;18.80;10.23;;;;;;;10.82;100.00;95010.88;4999315;28;20459;-88
2023/01/05 07:28:03;;;;;;;23.17;11.10;;;;;;;11.09;100.00;95015.25;4984007;28;20025;-87
2023/01/05 07:30:29;;;;;;;24.55;10.82;;;;;;;11.23;100.00;95009.53;4983835;28;20030;-87
2023/01/05 07:32:58;;;;;;;22.40;10.85;;;;;;;11.62;100.00;95009.19;5000225;28;20026;-87
2023/01/05 07:35:24;;;;;;;18.42;10.68;;;;;;;11.51;100.00;95015.44;4983835;28;20037;-86
2023/01/05 07:37:49;;;;;;;29.83;11.73;;;;;;;11.51;100.00;95010.19;4999550;28;20348;-87
2023/01/05 07:40:15;;;;;;;27.88;11.32;;;;;;;11.45;100.00;95015.41;4983667;28;20392;-86
2023/01/05 07:42:41;;;;;;;18.85;9.43;;;;;;;11.61;100.00;95007.59;4999397;28;20029;-86
2023/01/05 07:45:07;;;;;;;16.67;9.73;;;;;;;11.85;100.00;95000.06;4983370;28;20026;-86
2023/01/05 07:47:33;;;;;;;19.80;9.70;;;;;;;12.00;100.00;94996.66;4999170;28;20444;-87
2023/01/05 07:49:58;;;;;;;17.60;10.45;;;;;;;12.09;100.00;95007.47;4999655;28;20064;-87
2023/01/05 07:52:24;;;;;;;22.65;11.38;;;;;;;11.90;100.00;95009.75;4983528;28;20081;-87
2023/01/05 07:54:56;;;;;;;22.33;11.30;;;;;;;12.26;100.00;95006.44;4983348;28;20443;-87
2023/01/05 07:57:21;;;;;;;22.80;10.50;;;;;;;11.98;100.00;95001.38;4999556;28;20026;-87
2023/01/05 07:59:47;;;;;;;18.42;10.20;;;;;;;11.71;100.00;95007.63;4983389;28;20033;-87
2023/01/05 08:02:12;;;;;;;28.15;10.75;;;;;;;11.81;100.00;95004.22;5016913;28;20040;-87
2023/01/05 08:04:37;;;;;;;24.65;11.52;;;;;;;11.98;100.00;94998.75;4983699;28;20130;-87
2023/01/05 08:07:08;;;;;;;19.60;10.38;;;;;;;12.24;100.00;95006.72;4999282;28;20309;-87
2023/01/05 08:12:18;;;;;;;22.35;9.60;;;;;;;12.54;100.00;95014.84;5016968;28;20095;-87
2023/01/05 08:14:43;;;;;;;18.65;9.35;;;;;;;11.80;100.00;95015.00;5016835;28;20063;-87
2023/01/05 08:17:09;;;;;;;16.80;9.40;;;;;;;12.16;100.00;94999.34;4999221;28;20030;-87
2023/01/05 08:19:34;;;;;;;16.13;8.98;;;;;;;12.33;100.00;94990.41;4999705;28;20045;-88
2023/01/05 08:22:00;;;;;;;20.15;8.95;;;;;;;12.27;100.00;94993.03;5016566;28;20117;-87
2023/01/05 08:24:25;;;;;;;15.60;7.93;;;;;;;12.38;100.00;94998.31;5016794;28;20033;-87
2023/01/05 08:26:51;;;;;;;20.08;8.90;;;;;;;12.70;100.00;94994.59;5017011;28;20030;-87
2023/01/05 08:29:16;;;;;;;18.02;8.88;;;;;;;12.81;100.00;95003.25;5020463;28;20428;-87
2023/01/05 08:31:42;;;;;;;18.58;8.18;;;;;;;13.04;100.00;94998.50;5002846;28;20033;-87
2023/01/05 08:34:07;;;;;;;13.95;7.93;;;;;;;12.87;100.00;94997.72;5002874;28;20048;-87
2023/01/05 08:36:33;;;;;;;16.85;8.00;;;;;;;12.95;100.00;94998.25;4986704;28;20030;-87
2023/01/05 08:39:00;;;;;;;18.60;8.60;;;;;;;13.32;100.00;94996.31;4986627;28;20124;-87
2023/01/05 08:41:34;;;;;;;14.98;8.00;;;;;;;13.70;100.00;94999.31;4986705;28;20355;-87
2023/01/05 08:44:07;;;;;;;17.80;8.85;;;;;;;13.91;100.00;95001.88;5020127;28;20061;-87
2023/01/05 08:46:34;;;;;;;18.10;8.98;;;;;;;14.00;100.00;94997.63;5002683;28;20057;-87
2023/01/05 08:49:01;;;;;;;17.25;8.45;;;;;;;14.10;100.00;95004.66;5002541;28;20036;-87
2023/01/05 08:51:27;;;;;;;15.80;8.05;;;;;;;14.21;100.00;95008.00;4986132;28;20411;-87
2023/01/05 08:53:57;;;;;;;21.35;9.45;;;;;;;14.33;100.00;95002.38;5002555;28;20034;-87
2023/01/05 08:56:26;;;;;;;17.92;9.05;;;;;;;14.12;100.00;95007.81;5002403;28;20080;-87
2023/01/05 08:58:54;;;;;;;17.17;8.00;;;;;;;14.33;100.00;94999.75;5002840;28;20053;-87
2023/01/05 09:01:20;;;;;;;16.02;7.93;;;;;;;14.40;100.00;95013.41;4986429;28;20041;-87
2023/01/05 09:03:47;;;;;;;16.88;6.88;;;;;;;13.78;100.00;95004.03;5002911;28;20036;-87
2023/01/05 09:06:13;;;;;;;18.33;7.60;;;;;;;13.42;100.00;95006.81;5002686;28;20025;-88
2023/01/05 09:08:43;;;;;;;22.13;7.18;;;;;;;13.71;100.00;95008.84;5002445;28;20393;-88
2023/01/05 09:11:17;;;;;;;13.98;6.70;;;;;;;14.21;100.00;95002.75;5002667;28;20030;-88
2023/01/05 09:13:48;;;;;;;11.25;6.38;;;;;;;14.34;96.08;95010.03;5002492;28;20025;-88
2023/01/05 09:16:16;;;;;;;12.77;6.30;;;;;;;14.48;99.61;95004.91;4986034;28;20032;-88
2023/01/05 09:18:42;;;;;;;13.88;6.95;;;;;;;14.80;100.00;95002.81;5019714;28;20029;-88
2023/01/05 09:21:08;;;;;;;14.50;7.00;;;;;;;14.96;100.00;95006.88;5002115;28;20029;-89
2023/01/05 09:23:35;;;;;;;12.65;6.40;;;;;;;14.80;100.00;94995.72;5019689;28;20030;-88
2023/01/05 09:26:03;;;;;;;10.63;6.00;;;;;;;15.04;100.00;95002.84;5001980;28;20030;-88
2023/01/05 09:28:28;;;;;;;15.00;6.85;;;;;;;14.84;98.93;95009.91;5002198;28;20032;-88
2023/01/05 09:30:54;;;;;;;8.50;4.80;;;;;;;14.81;93.11;95002.56;5002213;28;20415;-89
2023/01/05 09:33:19;;;;;;;12.77;5.28;;;;;;;14.98;99.39;95003.97;5019521;28;20131;-89
2023/01/05 09:35:52;;;;;;;6.45;4.30;;;;;;;15.17;96.14;95011.16;4985665;28;20033;-89
2023/01/05 09:38:18;;;;;;;17.52;4.00;;;;;;;14.84;86.71;95004.63;5018697;28;20473;-88
2023/01/05 09:40:43;;;;;;;11.05;4.55;;;;;;;14.96;86.74;95006.88;4987426;28;20034;-87
2023/01/05 09:43:20;;;;;;;13.75;4.22;;;;;;;15.11;83.68;95005.97;5013983;28;20033;-88
2023/01/05 09:45:48;;;;;;;1999.90;999.90;;;;;;;15.17;87.93;94997.97;5005106;28;20428;-87
2023/01/05 09:48:23;;;;;;;1984.07;778.83;;;;;;;14.78;90.26;95002.31;5020968;28;20057;-89
2023/01/05 09:50:49;;;;;;;663.22;281.17;;;;;;;14.40;95.77;95006.28;5021470;28;20029;-89
2023/01/05 09:53:18;;;;;;;59.88;19.58;;;;;;;14.15;94.27;95007.25;5021280;28;20029;-89
2023/01/05 09:55:47;;;;;;;12.35;5.93;;;;;;;14.04;91.16;95013.63;5032526;28;20036;-89
2023/01/05 09:58:19;;;;;;;13.90;5.35;;;;;;;14.13;98.63;95006.75;5041181;28;20063;-89
2023/01/05 10:01:12;;;;;;;12.93;4.93;;;;;;;14.13;93.80;95006.75;5039199;28;20056;-89
2023/01/05 10:03:57;;;;;;;9.68;4.72;;;;;;;13.93;97.65;95013.72;5041746;28;20057;-89
2023/01/05 10:06:28;;;;;;;8.60;4.50;;;;;;;13.58;100.00;95010.19;5040768;28;20385;-89
2023/01/05 10:08:55;;;;;;;17.77;5.65;;;;;;;13.55;100.00;95010.72;5024640;28;20033;-90
2023/01/05 10:14:23;;;;;;;1614.97;567.72;;;;;;;13.87;96.61;95006.88;5058277;28;20133;-89
2023/01/05 10:16:49;;;;;;;944.70;335.67;;;;;;;13.81;100.00;95000.09;5025003;28;20429;-89
2023/01/05 10:19:24;;;;;;;879.88;382.83;;;;;;;13.92;99.16;95003.44;5024377;28;20033;-89
2023/01/05 10:21:49;;;;;;;435.58;158.77;;;;;;;13.92;92.83;94995.53;5023969;28;20376;-89
2023/01/05 10:24:24;;;;;;;86.93;31.75;;;;;;;14.02;96.29;94981.50;5032534;28;20040;-90
2023/01/05 10:27:02;;;;;;;18.00;7.78;;;;;;;13.95;98.98;94979.97;5015469;28;20033;-87
2023/01/05 10:29:45;;;;;;;25.10;10.73;;;;;;;14.03;98.52;94973.34;5000631;28;20052;-87
2023/01/05 10:32:27;;;;;;;11.98;6.35;;;;;;;13.92;96.01;94967.38;4984704;28;20092;-87
2023/01/05 10:34:58;;;;;;;9.38;5.13;;;;;;;14.25;95.99;94972.13;4984876;28;20052;-88
2023/01/05 10:37:55;;;;;;;11.88;5.65;;;;;;;14.30;92.83;94966.03;5000510;28;20032;-88
2023/01/05 10:40:27;;;;;;;10.13;4.40;;;;;;;14.20;88.21;94967.72;4984295;28;20129;-87
2023/01/05 10:43:04;;;;;;;14.93;5.50;;;;;;;14.28;89.75;94964.47;5049957;28;20033;-87
2023/01/05 10:45:30;;;;;;;8.93;4.20;;;;;;;14.16;90.19;94964.03;5057338;28;20033;-86
2023/01/05 10:47:57;;;;;;;10.95;4.40;;;;;;;14.32;89.51;94962.06;5029541;28;20034;-86
2023/01/05 10:50:39;;;;;;;7.50;4.00;;;;;;;14.41;84.98;94952.50;5019229;28;20419;-86
2023/01/05 10:53:23;;;;;;;7.82;3.80;;;;;;;14.37;83.34;94950.69;5007099;28;20034;-86
2023/01/05 10:55:57;;;;;;;8.48;3.67;;;;;;;14.17;85.39;94952.41;4999665;28;20407;-86
2023/01/05 10:58:28;;;;;;;13.00;4.30;;;;;;;14.22;84.78;94948.97;5017459;28;20029;-87
2023/01/05 11:01:17;;;;;;;9.05;4.53;;;;;;;14.51;83.98;94935.81;5000025;28;20033;-86
2023/01/05 11:03:46;;;;;;;11.07;4.20;;;;;;;14.41;87.47;94935.91;5023175;28;20033;-85
2023/01/05 11:06:27;;;;;;;8.13;3.95;;;;;;;14.74;85.79;94938.78;5018965;28;20037;-86
2023/01/05 11:08:53;;;;;;;10.40;3.83;;;;;;;14.74;85.19;94941.41;5012363;28;20347;-87
2023/01/05 11:11:28;;;;;;;8.00;3.85;;;;;;;14.90;84.91;94939.41;4983879;28;20499;-86
2023/01/05 11:13:57;;;;;;;6.50;3.90;;;;;;;14.86;81.71;94932.34;4999697;28;20029;-86
2023/01/05 11:16:27;;;;;;;9.60;4.35;;;;;;;14.90;79.40;94928.06;4999093;28;20030;-86
2023/01/05 11:18:55;;;;;;;6.50;3.72;;;;;;;15.00;80.35;94916.63;5017622;28;20096;-86
2023/01/05 11:21:27;;;;;;;8.52;3.70;;;;;;;14.72;77.89;94916.41;5019423;28;20059;-85
2023/01/05 11:23:59;;;;;;;6.70;3.92;;;;;;;15.03;75.39;94919.47;5019362;28;20033;-86
2023/01/05 11:26:36;;;;;;;7.82;3.50;;;;;;;15.00;74.92;94922.69;5036267;28;20115;-85
2023/01/05 11:29:08;;;;;;;6.45;2.78;;;;;;;15.17;71.39;94924.06;5019016;28;20128;-85
2023/01/05 11:31:42;;;;;;;7.82;2.22;;;;;;;15.16;65.95;94912.75;5016719;28;20435;-85
2023/01/05 11:34:16;;;;;;;11.10;5.80;;;;;;;15.48;66.22;94913.13;5016796;28;20038;-85
2023/01/05 11:36:43;;;;;;;6.95;2.88;;;;;;;15.52;65.80;94917.56;4999003;28;20461;-85
2023/01/05 11:39:20;;;;;;;10.68;2.33;;;;;;;15.68;64.39;94909.44;4983673;28;20030;-85
2023/01/05 11:41:46;;;;;;;6.93;2.55;;;;;;;15.47;65.20;94907.06;5018861;28;20036;-85
2023/01/05 11:44:29;;;;;;;7.43;2.60;;;;;;;15.65;65.39;94902.88;5019219;28;20025;-85
2023/01/05 11:46:55;;;;;;;7.05;2.97;;;;;;;15.61;64.12;94891.28;5018547;28;20029;-85
2023/01/05 11:49:20;;;;;;;6.45;2.63;;;;;;;15.71;62.13;94890.38;5018856;28;20522;-85
2023/01/05 11:51:46;;;;;;;6.72;2.97;;;;;;;15.68;61.51;94893.56;5002596;28;20060;-85
2023/01/05 11:54:37;;;;;;;4.63;2.72;;;;;;;15.73;62.90;94882.16;5046351;28;20454;-85
2023/01/05 11:57:13;;;;;;;6.57;2.90;;;;;;;15.82;63.21;94883.84;4982848;28;20029;-85